Time;durP1;ratioP1;P1;durP2;ratioP2;P2;SDS_P1;SDS_P2;PMS_P1;PMS_P2;Temp;Humidity;BMP_temperature;BMP_pressure;BME280_temperature;BME280_humidity;BME280_pressure;Samples;Min_cycle;Max_cycle;Signal;HPM_P1;HPM_P2
2023/07/13 00:00:53;;;;;;;7.93;2.70;;;;;;;22.67;100.00;98437.78;4484549;31;20113;-67
2023/07/13 00:03:21;;;;;;;7.32;3.08;;;;;;;22.70;100.00;98433.88;4485035;31;20383;-68
2023/07/13 00:05:58;;;;;;;5.78;2.65;;;;;;;22.82;100.00;98446.22;4485311;31;20093;-68
2023/07/13 00:08:26;;;;;;;3.58;2.33;;;;;;;22.78;100.00;98436.22;4485362;32;20088;-68
2023/07/13 00:10:54;;;;;;;7.22;2.20;;;;;;;22.86;100.00;98442.06;4485214;32;20383;-68
2023/07/13 00:13:21;;;;;;;3.58;2.00;;;;;;;23.02;97.92;98434.47;4485091;32;20104;-68
2023/07/13 00:15:49;;;;;;;2.58;1.50;;;;;;;23.07;95.93;98425.78;4485292;31;20092;-68
2023/07/13 00:18:16;;;;;;;6.12;2.03;;;;;;;23.10;91.77;98422.69;4484706;31;20123;-68
2023/07/13 00:20:43;;;;;;;3.70;1.40;;;;;;;23.12;90.69;98410.72;4485063;31;20084;-68
2023/07/13 00:23:11;;;;;;;4.12;1.70;;;;;;;23.15;88.18;98415.63;4485199;32;20143;-68
2023/07/13 00:25:38;;;;;;;3.12;1.30;;;;;;;23.17;86.68;98402.81;4484920;31;20096;-68
2023/07/13 00:28:06;;;;;;;2.03;1.30;;;;;;;23.24;85.02;98404.59;4483936;31;20135;-68
2023/07/13 00:30:33;;;;;;;3.35;1.70;;;;;;;23.29;81.70;98388.69;4483955;32;20138;-68
2023/07/13 00:33:01;;;;;;;3.67;1.17;;;;;;;23.36;81.68;98379.53;4483835;31;20164;-68
2023/07/13 00:35:45;;;;;;;1.37;0.88;;;;;;;23.26;81.93;98381.12;4484013;32;20084;-68
2023/07/13 00:38:13;;;;;;;3.85;1.20;;;;;;;23.19;81.34;98371.38;4483818;31;20118;-68
2023/07/13 00:40:41;;;;;;;5.03;1.00;;;;;;;23.28;79.79;98377.16;4484160;31;20535;-68
2023/07/13 00:43:13;;;;;;;3.10;1.08;;;;;;;23.32;79.53;98367.66;4485089;32;20147;-68
2023/07/13 00:45:45;;;;;;;2.67;0.77;;;;;;;23.30;78.60;98364.41;4485406;31;20451;-68
2023/07/13 00:48:20;;;;;;;2.92;1.02;;;;;;;23.31;77.45;98371.38;4485230;31;20111;-68
2023/07/13 00:50:52;;;;;;;3.62;1.00;;;;;;;23.23;77.46;98363.69;4485152;31;20104;-68
2023/07/13 00:53:20;;;;;;;1.62;1.00;;;;;;;23.24;77.23;98343.12;4485037;32;20504;-68
2023/07/13 00:55:50;;;;;;;1.35;0.90;;;;;;;23.21;77.51;98357.78;4483574;32;20117;-68
2023/07/13 00:58:17;;;;;;;2.70;0.90;;;;;;;23.11;76.61;98361.00;4483742;32;20503;-68
2023/07/13 01:00:47;;;;;;;2.90;0.80;;;;;;;23.06;75.51;98352.00;4483403;32;20092;-68
2023/07/13 01:03:15;;;;;;;2.05;1.15;;;;;;;23.13;74.55;98348.19;4483936;32;20092;-68
2023/07/13 01:05:43;;;;;;;2.40;0.82;;;;;;;23.08;74.24;98345.38;4484649;31;20101;-68
2023/07/13 01:08:12;;;;;;;2.92;1.30;;;;;;;23.08;74.77;98337.38;4484816;31;20472;-68
2023/07/13 01:10:50;;;;;;;1.42;0.90;;;;;;;23.07;74.67;98349.09;4484705;32;20450;-68
2023/07/13 01:13:19;;;;;;;5.22;1.20;;;;;;;23.04;75.34;98360.22;4484728;31;20507;-68
2023/07/13 01:15:48;;;;;;;2.50;1.02;;;;;;;22.87;79.20;98360.88;4484597;31;20084;-68
2023/07/13 01:18:19;;;;;;;1.65;0.82;;;;;;;22.93;79.97;98347.66;4484661;31;20080;-68
2023/07/13 01:20:50;;;;;;;8.93;1.20;;;;;;;22.93;79.25;98343.12;4484667;31;20080;-68
2023/07/13 01:23:19;;;;;;;1.08;0.98;;;;;;;22.79;80.18;98342.50;4484744;31;20113;-68
2023/07/13 01:25:48;;;;;;;3.42;1.30;;;;;;;22.77;80.82;98339.25;4484530;32;20435;-68
2023/07/13 01:28:16;;;;;;;4.87;1.40;;;;;;;22.70;81.33;98341.22;4484600;32;20080;-68
2023/07/13 01:30:45;;;;;;;2.08;1.27;;;;;;;22.64;81.61;98348.25;4483205;31;20087;-68
2023/07/13 01:33:18;;;;;;;1.45;0.90;;;;;;;22.56;81.37;98342.41;4484587;31;20116;-68
2023/07/13 01:35:46;;;;;;;1.67;1.00;;;;;;;22.48;81.93;98333.69;4483095;32;20437;-68
2023/07/13 01:38:18;;;;;;;4.40;1.00;;;;;;;22.53;80.77;98332.19;4484670;31;20138;-68
2023/07/13 01:40:46;;;;;;;2.67;0.80;;;;;;;22.52;80.13;98327.91;4484211;32;20080;-68
2023/07/13 01:43:14;;;;;;;2.05;0.93;;;;;;;22.56;79.96;98321.88;4484390;31;20580;-68
2023/07/13 01:45:43;;;;;;;3.40;0.88;;;;;;;22.57;80.21;98318.16;4483073;32;20092;-68
2023/07/13 01:48:13;;;;;;;2.87;1.02;;;;;;;22.47;81.54;98324.03;4484626;31;20080;-68
2023/07/13 01:50:42;;;;;;;3.55;1.20;;;;;;;22.39;82.67;98326.19;4484038;32;20149;-68
2023/07/13 01:53:10;;;;;;;3.12;1.12;;;;;;;22.22;83.57;98324.13;4484065;31;20092;-68
2023/07/13 01:55:42;;;;;;;2.70;1.15;;;;;;;22.18;84.11;98325.63;4484587;31;20124;-68
2023/07/13 01:58:10;;;;;;;1.83;1.20;;;;;;;22.12;84.63;98332.66;4484180;31;20123;-68
2023/07/13 02:00:39;;;;;;;4.03;1.20;;;;;;;22.09;85.33;98327.75;4484280;32;20108;-68
2023/07/13 02:03:07;;;;;;;2.03;0.93;;;;;;;21.87;85.88;98324.72;4482995;32;20108;-68
2023/07/13 02:05:35;;;;;;;3.92;1.30;;;;;;;21.65;86.98;98316.34;4483836;31;20172;-68
2023/07/13 02:08:02;;;;;;;3.10;1.15;;;;;;;21.49;88.04;98327.53;4484123;31;20104;-68
2023/07/13 02:10:31;;;;;;;2.33;1.05;;;;;;;21.42;88.56;98332.91;4483966;32;20143;-68
2023/07/13 02:12:59;;;;;;;2.95;1.08;;;;;;;21.48;89.34;98336.53;4484002;31;20092;-68
2023/07/13 02:15:27;;;;;;;3.30;1.30;;;;;;;21.38;89.60;98345.03;4483897;32;20635;-68
2023/07/13 02:17:54;;;;;;;1.30;1.10;;;;;;;21.28;90.03;98326.88;4483761;31;20089;-68
2023/07/13 02:20:22;;;;;;;3.92;1.48;;;;;;;21.20;90.77;98319.16;4483875;31;20119;-68
2023/07/13 02:22:50;;;;;;;2.22;1.40;;;;;;;21.19;91.92;98317.50;4483862;32;20149;-68
2023/07/13 02:25:19;;;;;;;2.60;1.70;;;;;;;21.09;93.91;98324.13;4483903;31;20113;-68
2023/07/13 02:27:49;;;;;;;3.15;1.58;;;;;;;21.05;95.50;98322.94;4483596;32;20101;-68
2023/07/13 02:30:17;;;;;;;3.05;1.70;;;;;;;21.01;97.75;98329.72;4483561;31;20110;-68
2023/07/13 02:32:44;;;;;;;4.05;1.60;;;;;;;21.05;99.10;98332.78;4483753;31;20116;-68
2023/07/13 02:35:13;;;;;;;2.03;1.52;;;;;;;21.04;100.00;98337.28;4483571;32;20115;-68
2023/07/13 02:37:41;;;;;;;6.10;2.22;;;;;;;20.96;100.00;98324.22;4483895;31;20096;-68
2023/07/13 02:40:09;;;;;;;4.03;2.10;;;;;;;20.95;100.00;98319.94;4483387;31;20084;-68
2023/07/13 02:42:37;;;;;;;5.00;2.03;;;;;;;20.96;100.00;98315.44;4484241;32;20111;-68
2023/07/13 02:45:08;;;;;;;3.70;2.12;;;;;;;20.90;100.00;98328.56;4485978;31;20100;-68
2023/07/13 02:47:37;;;;;;;3.25;2.25;;;;;;;20.89;100.00;98347.41;4486279;31;20563;-68
2023/07/13 02:50:05;;;;;;;4.75;2.05;;;;;;;20.81;100.00;98337.84;4485657;31;20096;-68
2023/07/13 02:52:34;;;;;;;3.33;1.90;;;;;;;20.78;100.00;98340.13;4485829;31;20104;-68
2023/07/13 02:55:01;;;;;;;7.75;2.10;;;;;;;20.79;100.00;98333.75;4485920;32;20596;-68
2023/07/13 02:57:30;;;;;;;4.37;2.40;;;;;;;20.73;100.00;98330.91;4485929;31;20099;-68
2023/07/13 02:59:59;;;;;;;5.50;2.37;;;;;;;20.65;100.00;98333.84;4485692;31;20122;-68
2023/07/13 03:02:28;;;;;;;3.55;2.33;;;;;;;20.68;100.00;98343.22;4485764;31;20104;-68
2023/07/13 03:04:56;;;;;;;4.90;3.15;;;;;;;20.66;100.00;98356.75;4486029;32;20172;-68
2023/07/13 03:07:25;;;;;;;5.47;2.10;;;;;;;20.58;100.00;98358.84;4485420;31;20093;-68
2023/07/13 03:09:56;;;;;;;4.05;2.10;;;;;;;20.60;100.00;98368.22;4486167;31;20360;-68
2023/07/13 03:12:25;;;;;;;6.62;2.35;;;;;;;20.60;100.00;98384.19;4485744;31;20084;-68
2023/07/13 03:14:53;;;;;;;5.45;2.42;;;;;;;20.61;100.00;98377.84;4485887;31;20122;-68
2023/07/13 03:17:23;;;;;;;8.02;2.70;;;;;;;20.67;100.00;98369.03;4485761;32;20119;-68
2023/07/13 03:19:52;;;;;;;4.25;2.60;;;;;;;20.76;100.00;98366.12;4485628;31;20151;-68
2023/07/13 03:22:21;;;;;;;4.05;2.47;;;;;;;20.85;100.00;98354.22;4485791;31;20203;-68
2023/07/13 03:24:50;;;;;;;8.30;2.28;;;;;;;20.83;100.00;98354.44;4485901;31;20088;-68
2023/07/13 03:27:17;;;;;;;6.00;2.20;;;;;;;20.96;100.00;98356.19;4485557;31;20104;-68
2023/07/13 03:29:46;;;;;;;4.72;2.45;;;;;;;21.02;100.00;98355.31;4485828;31;20498;-68
2023/07/13 03:32:14;;;;;;;3.83;2.42;;;;;;;21.09;100.00;98355.28;4485657;31;20374;-68
2023/07/13 03:34:42;;;;;;;4.40;2.00;;;;;;;21.25;100.00;98360.06;4485821;32;20168;-68
2023/07/13 03:37:10;;;;;;;4.60;2.05;;;;;;;21.36;100.00;98358.59;4485569;31;20636;-68
2023/07/13 03:39:38;;;;;;;6.75;2.20;;;;;;;21.48;100.00;98357.88;4484501;32;20192;-68
2023/07/13 03:42:06;;;;;;;4.22;1.95;;;;;;;21.57;100.00;98372.56;4485648;31;20104;-68
2023/07/13 03:44:35;;;;;;;3.85;1.90;;;;;;;21.70;100.00;98377.00;4485479;31;20097;-68
2023/07/13 03:47:05;;;;;;;6.00;2.10;;;;;;;21.84;100.00;98375.00;4484256;32;20100;-68
2023/07/13 03:49:33;;;;;;;3.15;1.67;;;;;;;21.91;100.00;98367.78;4485328;31;20094;-68
2023/07/13 03:52:00;;;;;;;2.87;1.90;;;;;;;22.02;100.00;98374.22;4485635;31;20103;-68
2023/07/13 03:54:28;;;;;;;3.70;1.55;;;;;;;22.09;100.00;98382.94;4484730;31;20092;-68
2023/07/13 03:56:56;;;;;;;3.03;1.80;;;;;;;22.09;100.00;98381.12;4485316;32;20443;-68
2023/07/13 03:59:24;;;;;;;4.45;1.80;;;;;;;22.17;100.00;98381.88;4485673;31;20100;-68
2023/07/13 04:01:52;;;;;;;2.70;2.10;;;;;;;22.15;100.00;98385.56;4483980;32;20638;-68
2023/07/13 04:04:20;;;;;;;8.57;2.20;;;;;;;;;;4485377;32;20148;-68
2023/07/13 04:06:48;;;;;;;2.90;1.80;;;;;;;22.14;100.00;98413.28;4485049;31;20088;-68
2023/07/13 04:09:18;;;;;;;5.78;2.50;;;;;;;22.05;100.00;98430.59;4484776;31;20073;-69
2023/07/13 04:11:45;;;;;;;4.93;2.37;;;;;;;21.88;100.00;98434.88;4485010;32;20123;-69
2023/07/13 04:14:12;;;;;;;3.67;2.47;;;;;;;21.82;100.00;98431.22;4484175;32;20104;-68
2023/07/13 04:16:40;;;;;;;5.55;2.47;;;;;;;21.64;100.00;98423.19;4481788;31;20135;-69
2023/07/13 04:19:10;;;;;;;4.50;2.00;;;;;;;21.50;100.00;98420.63;4482715;31;20489;-69
2023/07/13 04:21:38;;;;;;;7.22;2.15;;;;;;;21.49;100.00;98434.12;4478483;31;20131;-68
2023/07/13 04:24:05;;;;;;;3.85;2.15;;;;;;;21.49;100.00;98440.25;4484983;32;20188;-69
2023/07/13 04:26:35;;;;;;;4.87;2.50;;;;;;;21.37;100.00;98440.13;4474771;31;20262;-69
2023/07/13 04:29:03;;;;;;;5.68;2.37;;;;;;;21.46;100.00;98451.34;4484360;31;20523;-69
2023/07/13 04:31:31;;;;;;;7.62;2.70;;;;;;;21.47;100.00;98455.66;4483924;31;20092;-69
2023/07/13 04:33:58;;;;;;;5.30;2.28;;;;;;;21.35;100.00;98468.06;4477766;32;20605;-69
2023/07/13 04:36:28;;;;;;;4.50;2.40;;;;;;;21.39;100.00;98479.91;4483072;32;20501;-68
2023/07/13 04:38:55;;;;;;;4.22;2.80;;;;;;;21.13;100.00;98494.19;4481584;31;20138;-69
2023/07/13 04:41:23;;;;;;;9.77;2.80;;;;;;;20.93;100.00;98497.75;4484991;32;20107;-68
2023/07/13 04:43:50;;;;;;;5.65;2.85;;;;;;;20.85;100.00;98505.97;4484188;31;20107;-69
2023/07/13 04:46:18;;;;;;;10.45;3.45;;;;;;;20.68;100.00;98509.09;4484552;31;20165;-69
2023/07/13 04:48:45;;;;;;;9.50;3.20;;;;;;;20.49;100.00;98521.38;4484149;31;20438;-68
2023/07/13 04:51:12;;;;;;;6.22;3.25;;;;;;;20.36;100.00;98532.03;4483250;31;20107;-69
2023/07/13 04:53:39;;;;;;;7.15;3.67;;;;;;;20.25;100.00;98552.09;4485099;32;20115;-69
2023/07/13 04:56:07;;;;;;;9.32;3.60;;;;;;;20.20;100.00;98571.34;4481182;32;20124;-68
2023/07/13 04:58:35;;;;;;;6.30;3.83;;;;;;;20.09;100.00;98600.38;4481697;31;20095;-69
2023/07/13 05:01:03;;;;;;;9.25;4.80;;;;;;;20.00;100.00;98631.66;4483342;31;20143;-68
2023/07/13 05:03:32;;;;;;;11.93;5.30;;;;;;;19.99;100.00;98654.78;4477345;32;20115;-69
2023/07/13 05:06:03;;;;;;;6.65;4.47;;;;;;;19.91;100.00;98683.37;4484648;31;20496;-68
2023/07/13 05:08:31;;;;;;;5.72;3.75;;;;;;;19.79;100.00;98702.56;4484524;31;20183;-69
2023/07/13 05:11:03;;;;;;;5.12;3.22;;;;;;;19.61;100.00;98713.69;4483255;31;20112;-68
2023/07/13 05:13:31;;;;;;;7.12;3.20;;;;;;;19.55;100.00;98725.12;4481416;32;20088;-69
2023/07/13 05:16:00;;;;;;;8.88;2.90;;;;;;;19.38;100.00;98721.97;4484056;31;20104;-69
2023/07/13 05:18:28;;;;;;;6.60;3.12;;;;;;;19.28;100.00;98732.91;4480946;31;20239;-68
2023/07/13 05:21:04;;;;;;;6.12;2.87;;;;;;;19.18;100.00;98724.47;4471538;32;20148;-68
2023/07/13 05:23:32;;;;;;;4.93;2.28;;;;;;;19.09;100.00;98725.63;4483022;32;20461;-68
2023/07/13 05:25:59;;;;;;;5.85;2.50;;;;;;;19.01;100.00;98728.44;4484706;31;20594;-67
2023/07/13 05:28:27;;;;;;;6.57;2.12;;;;;;;18.84;100.00;98727.87;4484351;31;20100;-67
2023/07/13 05:30:56;;;;;;;4.18;2.00;;;;;;;18.79;100.00;98731.09;4484939;31;20100;-67
2023/07/13 05:33:24;;;;;;;3.35;2.25;;;;;;;18.72;100.00;98704.50;4483243;31;20211;-68
2023/07/13 05:35:51;;;;;;;6.68;2.40;;;;;;;18.59;100.00;98696.41;4487649;31;20087;-68
2023/07/13 05:38:19;;;;;;;12.88;2.42;;;;;;;18.49;100.00;98680.84;4485166;31;20106;-69
2023/07/13 05:40:47;;;;;;;5.75;2.55;;;;;;;18.51;100.00;98683.28;4485546;31;20092;-70
2023/07/13 05:43:15;;;;;;;8.15;2.28;;;;;;;18.37;100.00;98661.94;4483451;31;20458;-70
2023/07/13 05:45:42;;;;;;;7.93;2.70;;;;;;;18.32;100.00;98655.56;4484353;31;20104;-70
2023/07/13 05:48:12;;;;;;;8.63;2.20;;;;;;;18.26;100.00;98625.34;4484756;31;20096;-70
2023/07/13 05:50:40;;;;;;;7.43;2.33;;;;;;;18.18;100.00;98618.34;4483287;31;20160;-70
2023/07/13 05:53:07;;;;;;;9.18;2.40;;;;;;;18.16;100.00;98622.19;4490615;31;20367;-69
2023/07/13 05:55:41;;;;;;;8.55;2.87;;;;;;;18.17;100.00;98632.59;4480309;31;20096;-69
2023/07/13 05:58:08;;;;;;;5.45;2.87;;;;;;;18.23;100.00;98628.37;4482630;31;20110;-69
2023/07/13 06:00:37;;;;;;;6.18;2.80;;;;;;;18.17;100.00;98602.59;4480327;31;20450;-69
2023/07/13 06:03:06;;;;;;;10.48;2.85;;;;;;;18.14;100.00;98545.50;4490494;31;20115;-68
2023/07/13 06:05:35;;;;;;;3.25;2.58;;;;;;;18.06;100.00;98436.94;4483484;31;20160;-69
2023/07/13 06:08:04;;;;;;;9.75;3.05;;;;;;;17.86;100.00;98304.25;4475949;31;20088;-69
2023/07/13 06:10:34;;;;;;;5.12;3.08;;;;;;;17.76;100.00;98248.16;4476126;31;20112;-68
2023/07/13 06:13:01;;;;;;;4.82;2.65;;;;;;;17.89;100.00;98285.34;4477233;32;20565;-69
2023/07/13 06:15:29;;;;;;;6.57;2.92;;;;;;;17.95;100.00;98283.75;4485900;31;20096;-69
2023/07/13 06:17:56;;;;;;;5.35;2.80;;;;;;;17.95;100.00;98254.59;4488742;31;20148;-69
2023/07/13 06:20:24;;;;;;;5.93;2.47;;;;;;;18.06;100.00;98267.28;4487989;31;20093;-69
2023/07/13 06:22:51;;;;;;;5.80;2.75;;;;;;;18.10;100.00;98247.31;4486163;31;20115;-69
2023/07/13 06:25:19;;;;;;;3.15;2.30;;;;;;;18.18;100.00;98248.97;4490718;31;20127;-69
2023/07/13 06:27:46;;;;;;;5.78;2.35;;;;;;;18.34;100.00;98221.28;4483202;31;20394;-68
2023/07/13 06:30:14;;;;;;;3.28;2.47;;;;;;;18.51;100.00;98233.16;4494640;31;20095;-68
2023/07/13 06:32:41;;;;;;;4.28;2.17;;;;;;;18.60;100.00;98189.47;4475135;31;20560;-68
2023/07/13 06:35:12;;;;;;;2.95;1.92;;;;;;;18.79;100.00;98193.19;4482705;31;20096;-67
2023/07/13 06:37:40;;;;;;;4.78;1.80;;;;;;;18.91;100.00;98214.66;4483679;31;20238;-67
2023/07/13 06:40:08;;;;;;;3.55;1.80;;;;;;;19.09;100.00;98213.19;4486091;31;20160;-67
2023/07/13 06:42:35;;;;;;;5.00;1.95;;;;;;;19.24;100.00;98216.47;4483169;31;20438;-67
2023/07/13 06:45:03;;;;;;;3.62;1.58;;;;;;;19.48;100.00;98227.44;4484789;31;20088;-66
2023/07/13 06:47:32;;;;;;;4.47;1.98;;;;;;;19.62;100.00;98229.06;4484603;31;20150;-66
2023/07/13 06:50:02;;;;;;;2.33;1.60;;;;;;;19.77;100.00;98238.59;4494716;31;20097;-67
2023/07/13 06:52:31;;;;;;;2.85;1.80;;;;;;;20.00;100.00;98233.66;4485559;31;20161;-67
2023/07/13 06:54:58;;;;;;;2.78;1.70;;;;;;;20.21;100.00;98250.31;4494462;31;20124;-66
2023/07/13 06:57:26;;;;;;;1.75;1.52;;;;;;;20.60;100.00;98274.25;4485983;31;20126;-67
2023/07/13 06:59:54;;;;;;;2.78;1.75;;;;;;;20.78;100.00;98274.38;4481004;31;20163;-67
2023/07/13 07:02:22;;;;;;;3.62;2.00;;;;;;;21.07;100.00;98286.25;4485377;31;20080;-67
2023/07/13 07:04:49;;;;;;;8.10;1.60;;;;;;;21.24;100.00;98320.31;4491336;31;20171;-67
2023/07/13 07:07:17;;;;;;;2.53;1.95;;;;;;;21.35;100.00;98430.75;4495169;31;21678;-67
2023/07/13 07:09:45;;;;;;;2.65;1.73;;;;;;;21.07;100.00;98491.34;4479463;31;20131;-67
2023/07/13 07:12:13;;;;;;;3.53;1.90;;;;;;;20.73;100.00;98448.06;4487954;31;20573;-68
2023/07/13 07:14:41;;;;;;;2.60;1.85;;;;;;;20.67;100.00;98456.88;4487400;31;20127;-68
2023/07/13 07:17:09;;;;;;;3.58;1.87;;;;;;;20.72;100.00;98481.00;4490346;31;20096;-68
2023/07/13 07:19:37;;;;;;;5.12;2.05;;;;;;;20.74;100.00;98465.66;4484197;31;20173;-68
2023/07/13 07:22:05;;;;;;;4.32;2.03;;;;;;;20.76;100.00;98473.44;4481112;31;20411;-68
2023/07/13 07:24:32;;;;;;;4.57;2.10;;;;;;;20.86;100.00;98487.13;4482741;31;20179;-68
2023/07/13 07:27:00;;;;;;;5.45;2.15;;;;;;;20.80;100.00;98482.63;4480765;31;20100;-68
2023/07/13 07:29:30;;;;;;;3.40;2.42;;;;;;;20.96;100.00;98483.19;4485304;31;20100;-68
2023/07/13 07:32:00;;;;;;;6.55;2.40;;;;;;;21.26;100.00;98489.59;4485029;31;20127;-68
2023/07/13 07:34:46;;;;;;;4.43;2.60;;;;;;;21.39;100.00;98494.06;4479586;31;20439;-67
2023/07/13 07:37:14;;;;;;;3.50;2.50;;;;;;;21.09;100.00;98494.59;4485251;31;20091;-67
2023/07/13 07:39:44;;;;;;;4.80;2.67;;;;;;;21.16;100.00;98486.56;4482111;31;20104;-67
2023/07/13 07:42:34;;;;;;;5.28;2.50;;;;;;;21.07;100.00;98480.69;4479951;31;20123;-67
2023/07/13 07:45:02;;;;;;;6.95;3.17;;;;;;;21.31;100.00;98480.97;4483612;31;20108;-67
2023/07/13 07:47:29;;;;;;;3.47;2.40;;;;;;;21.51;100.00;98483.53;4479965;32;20083;-67
2023/07/13 07:49:56;;;;;;;5.95;2.75;;;;;;;21.76;100.00;98507.56;4484242;31;20092;-68
2023/07/13 07:52:23;;;;;;;6.18;2.53;;;;;;;22.02;100.00;98504.94;4485489;31;20175;-68
2023/07/13 07:54:51;;;;;;;4.68;2.20;;;;;;;21.94;100.00;98508.69;4481051;31;20092;-68
2023/07/13 07:57:20;;;;;;;3.90;2.28;;;;;;;22.00;100.00;98518.47;4485709;31;20091;-68
2023/07/13 07:59:51;;;;;;;9.32;2.55;;;;;;;22.20;100.00;98515.63;4488362;31;20597;-68
2023/07/13 08:02:21;;;;;;;3.65;2.10;;;;;;;22.55;100.00;98517.00;4487867;31;20162;-68
2023/07/13 08:04:52;;;;;;;3.65;1.73;;;;;;;22.77;100.00;98526.22;4487017;31;20095;-69
2023/07/13 08:07:22;;;;;;;3.03;1.85;;;;;;;22.55;100.00;98527.69;4483190;31;20137;-68
2023/07/13 08:09:53;;;;;;;3.00;1.77;;;;;;;22.75;100.00;98528.28;4490747;31;20131;-69
2023/07/13 08:12:21;;;;;;;2.97;1.67;;;;;;;22.89;100.00;98528.13;4484725;31;20569;-68
2023/07/13 08:14:54;;;;;;;2.05;1.50;;;;;;;22.79;100.00;98534.00;4484584;31;20132;-69
2023/07/13 08:17:21;;;;;;;3.65;2.00;;;;;;;22.50;100.00;98531.81;4481330;31;20117;-68
2023/07/13 08:19:49;;;;;;;3.08;2.03;;;;;;;22.66;100.00;98541.12;4483651;31;20161;-69
2023/07/13 08:22:17;;;;;;;3.28;1.80;;;;;;;22.74;100.00;98532.00;4483663;31;20134;-69
2023/07/13 08:24:46;;;;;;;4.25;1.83;;;;;;;22.90;100.00;98541.25;4482277;31;20756;-69
2023/07/13 08:27:15;;;;;;;5.12;2.00;;;;;;;23.06;100.00;98534.50;4484968;31;20500;-69
2023/07/13 08:29:45;;;;;;;3.37;1.95;;;;;;;23.21;100.00;98531.50;4482712;31;20122;-69
2023/07/13 08:32:15;;;;;;;2.65;1.87;;;;;;;23.45;100.00;98536.91;4478164;31;20129;-69
2023/07/13 08:34:42;;;;;;;5.28;1.90;;;;;;;23.40;100.00;98542.94;4485266;31;20105;-69
2023/07/13 08:37:10;;;;;;;2.00;1.70;;;;;;;23.77;100.00;98542.84;4483219;31;20119;-69
2023/07/13 08:39:39;;;;;;;6.45;1.83;;;;;;;23.55;100.00;98540.66;4485028;31;20135;-69
2023/07/13 08:42:18;;;;;;;5.20;2.17;;;;;;;23.85;100.00;98542.53;4487841;31;20084;-69
2023/07/13 08:44:57;;;;;;;7.55;1.92;;;;;;;24.23;100.00;98532.47;4484317;31;20181;-69
2023/07/13 08:47:25;;;;;;;4.68;2.30;;;;;;;24.45;100.00;98543.41;4485491;31;20068;-69
2023/07/13 08:49:53;;;;;;;2.67;1.90;;;;;;;24.45;100.00;98552.28;4477507;31;20136;-69
2023/07/13 08:52:33;;;;;;;2.75;1.65;;;;;;;24.64;100.00;98554.88;4475524;32;20104;-69
2023/07/13 08:55:16;;;;;;;2.75;1.73;;;;;;;24.60;100.00;98542.97;4472290;31;20118;-69
2023/07/13 08:57:46;;;;;;;3.77;1.93;;;;;;;24.83;100.00;98539.47;4477136;32;20096;-69
2023/07/13 09:00:15;;;;;;;6.30;1.85;;;;;;;24.66;100.00;98535.88;4481880;32;20247;-69
2023/07/13 09:02:47;;;;;;;3.25;2.00;;;;;;;24.88;100.00;98542.25;4482986;31;20091;-68
2023/07/13 09:05:22;;;;;;;4.65;2.05;;;;;;;25.02;100.00;98552.72;4482888;32;20490;-68
2023/07/13 09:08:14;;;;;;;2.92;1.55;;;;;;;25.30;100.00;98549.31;4485258;31;20468;-68
2023/07/13 09:10:50;;;;;;;2.53;1.62;;;;;;;25.27;100.00;98545.19;4483664;31;20127;-68
2023/07/13 09:13:55;;;;;;;2.45;1.40;;;;;;;25.21;100.00;98538.09;4480079;31;20125;-68
2023/07/13 09:16:24;;;;;;;1.92;1.42;;;;;;;25.38;100.00;98542.75;4479769;31;20674;-68
2023/07/13 09:18:56;;;;;;;3.28;1.73;;;;;;;25.65;98.74;98541.09;4478071;32;20115;-68
2023/07/13 09:21:39;;;;;;;1.52;1.20;;;;;;;26.08;98.94;98543.44;4481666;31;20112;-68
2023/07/13 09:24:35;;;;;;;1.58;1.15;;;;;;;26.18;94.47;98546.31;4475983;31;20122;-68
2023/07/13 09:27:12;;;;;;;3.62;1.40;;;;;;;26.24;94.08;98547.16;4477576;31;20167;-69
2023/07/13 09:29:43;;;;;;;3.20;1.40;;;;;;;26.08;92.99;98563.03;4481477;32;20100;-68
2023/07/13 09:32:12;;;;;;;2.20;1.48;;;;;;;25.90;94.30;98565.94;4483502;31;20190;-68
2023/07/13 09:34:39;;;;;;;2.55;1.30;;;;;;;26.24;90.92;98564.12;4471716;31;20150;-68
2023/07/13 09:37:06;;;;;;;2.30;1.50;;;;;;;26.48;93.89;98561.22;4480502;31;20124;-68
2023/07/13 09:39:37;;;;;;;2.28;1.67;;;;;;;26.58;92.67;98563.28;4475801;31;20115;-68
2023/07/13 09:42:10;;;;;;;2.83;1.52;;;;;;;26.41;91.69;98561.41;4479037;32;20092;-68
2023/07/13 09:44:48;;;;;;;3.42;1.55;;;;;;;26.72;91.73;98561.88;4479797;31;20096;-68
2023/07/13 09:47:23;;;;;;;3.47;1.55;;;;;;;26.92;90.30;98566.72;4482743;32;20084;-68
2023/07/13 09:49:59;;;;;;;2.90;1.60;;;;;;;26.58;89.88;98572.12;4485713;31;20122;-68
2023/07/13 09:52:47;;;;;;;2.65;1.70;;;;;;;26.21;90.23;98572.66;4484321;31;20097;-68
2023/07/13 09:55:30;;;;;;;3.50;1.70;;;;;;;26.18;92.63;98575.84;4484684;31;20096;-68
2023/07/13 09:57:58;;;;;;;4.40;1.87;;;;;;;26.62;91.10;98575.16;4484227;31;20521;-68
2023/07/13 10:00:28;;;;;;;3.03;1.90;;;;;;;26.56;90.98;98577.75;4490618;31;20123;-68
2023/07/13 10:03:21;;;;;;;6.32;1.65;;;;;;;26.85;92.72;98577.66;4491674;31;20727;-68
2023/07/13 10:05:52;;;;;;;2.75;1.77;;;;;;;27.29;90.00;98584.94;4480185;31;20156;-68
2023/07/13 10:08:28;;;;;;;2.33;1.73;;;;;;;27.19;88.62;98585.63;4483908;31;20167;-68
2023/07/13 10:11:00;;;;;;;5.43;2.08;;;;;;;27.01;88.55;98584.06;4483396;31;20080;-68
2023/07/13 10:13:36;;;;;;;4.45;2.15;;;;;;;26.89;92.37;98580.69;4478726;31;20434;-68
2023/07/13 10:16:06;;;;;;;5.05;1.60;;;;;;;26.95;90.31;98574.31;4478432;31;20594;-68
2023/07/13 10:18:56;;;;;;;2.90;1.80;;;;;;;27.16;88.40;98577.22;4484359;31;20108;-68
2023/07/13 10:21:28;;;;;;;2.97;1.85;;;;;;;27.35;86.27;98583.94;4471573;31;20115;-68
2023/07/13 10:24:10;;;;;;;2.55;1.80;;;;;;;27.47;84.59;98591.09;4479505;31;20669;-68
2023/07/13 10:26:45;;;;;;;3.87;1.85;;;;;;;27.52;83.47;98586.56;4480447;31;20172;-68
2023/07/13 10:29:14;;;;;;;2.60;1.90;;;;;;;27.36;84.64;98585.59;4481722;31;20162;-67
2023/07/13 10:31:44;;;;;;;3.12;2.00;;;;;;;27.62;84.22;98586.66;4484996;31;20159;-69
2023/07/13 10:34:13;;;;;;;2.65;1.87;;;;;;;27.48;82.14;98581.94;4484897;31;20130;-67
2023/07/13 10:36:44;;;;;;;5.82;1.87;;;;;;;27.37;83.65;98589.88;4483397;31;20195;-68
2023/07/13 10:39:27;;;;;;;4.53;2.10;;;;;;;27.53;83.46;98585.50;4485706;31;20583;-69
2023/07/13 10:41:58;;;;;;;4.55;1.80;;;;;;;27.67;81.80;98577.84;4484373;31;20110;-68
2023/07/13 10:44:28;;;;;;;5.50;1.67;;;;;;;27.82;78.51;98579.06;4473787;31;20093;-67
2023/07/13 10:47:02;;;;;;;3.53;1.98;;;;;;;28.03;76.40;98574.72;4489456;31;20123;-69
2023/07/13 10:49:31;;;;;;;2.55;1.70;;;;;;;28.10;78.10;98581.50;4473640;31;20462;-67
2023/07/13 10:51:59;;;;;;;2.42;1.60;;;;;;;28.29;76.05;98584.59;4481551;31;20101;-69
2023/07/13 10:54:28;;;;;;;3.08;1.92;;;;;;;28.17;75.80;98580.47;4484020;31;20092;-67
2023/07/13 10:57:12;;;;;;;2.92;1.50;;;;;;;28.37;76.51;98579.81;4484321;31;20152;-66
2023/07/13 10:59:41;;;;;;;5.07;1.90;;;;;;;28.67;76.85;98563.06;4479621;31;20168;-67
2023/07/13 11:02:13;;;;;;;5.68;1.83;;;;;;;28.92;75.81;98566.97;4489419;31;20163;-67
2023/07/13 11:04:48;;;;;;;2.22;1.73;;;;;;;28.84;75.69;98569.09;4497354;31;20127;-66
2023/07/13 11:07:31;;;;;;;4.45;2.08;;;;;;;28.58;73.35;98581.56;4501191;31;20088;-67
2023/07/13 11:10:05;;;;;;;2.85;1.73;;;;;;;28.68;72.47;98570.88;4501645;31;20088;-68
2023/07/13 11:12:51;;;;;;;3.65;2.17;;;;;;;29.22;71.75;98569.00;4488289;31;20137;-68
2023/07/13 11:15:52;;;;;;;1.98;1.58;;;;;;;29.07;72.87;98583.22;4478656;31;20555;-67
2023/07/13 11:18:22;;;;;;;2.05;1.60;;;;;;;28.81;74.96;98577.72;4435836;32;20175;-67
2023/07/13 11:20:50;;;;;;;2.25;1.50;;;;;;;28.81;72.57;98574.19;4435827;32;20202;-67
2023/07/13 11:23:27;;;;;;;4.30;1.90;;;;;;;29.07;70.89;98566.22;4436245;32;20115;-68
2023/07/13 11:25:55;;;;;;;4.30;1.83;;;;;;;28.78;72.41;98559.38;4436670;32;20190;-68
2023/07/13 11:28:24;;;;;;;5.78;1.90;;;;;;;28.97;72.05;98557.00;4436017;32;20578;-67
2023/07/13 11:30:56;;;;;;;3.33;2.08;;;;;;;29.05;73.59;98563.78;4436612;32;20089;-67
2023/07/13 11:33:40;;;;;;;2.97;1.73;;;;;;;29.67;73.75;98566.69;4436068;32;20131;-67
2023/07/13 11:36:14;;;;;;;2.20;1.80;;;;;;;29.61;66.60;98567.78;4436541;32;20120;-67
2023/07/13 11:38:51;;;;;;;4.82;2.35;;;;;;;29.02;66.72;98575.09;4436190;32;20120;-67
2023/07/13 11:41:28;;;;;;;2.60;1.87;;;;;;;29.06;67.01;98570.81;4420068;32;20113;-68
2023/07/13 11:44:07;;;;;;;3.37;1.83;;;;;;;28.65;69.82;98570.59;4447572;32;20120;-68